createdAt,value
2019-01-15T00:00:05.513Z,2.93
2019-01-15T00:02:34.345Z,2.07
2019-01-15T00:05:03.477Z,1.53
2019-01-15T00:07:32.283Z,2.23
2019-01-15T00:10:01.119Z,2.63
2019-01-15T00:12:29.902Z,2.10
2019-01-15T00:14:58.704Z,2.00
2019-01-15T00:17:27.643Z,2.87
2019-01-15T00:19:56.459Z,1.83
2019-01-15T00:22:25.593Z,2.30
2019-01-15T00:24:54.466Z,2.50
2019-01-15T00:27:23.358Z,2.43
2019-01-15T00:29:52.178Z,1.80
2019-01-15T00:32:20.934Z,3.30
2019-01-15T00:34:49.878Z,2.12
2019-01-15T00:37:18.736Z,2.90
2019-01-15T00:39:47.559Z,2.10
2019-01-15T00:42:16.579Z,2.03
2019-01-15T00:44:45.363Z,2.10
2019-01-15T00:47:14.848Z,2.50
2019-01-15T00:49:44.168Z,2.30
2019-01-15T00:52:13.348Z,2.83
2019-01-15T00:54:42.712Z,2.37
2019-01-15T00:57:11.851Z,2.43
2019-01-15T00:59:41.019Z,2.10
2019-01-15T01:02:10.098Z,3.07
2019-01-15T01:04:39.020Z,2.57
2019-01-15T01:07:07.812Z,3.07
2019-01-15T01:09:36.672Z,1.90
2019-01-15T01:12:05.480Z,1.47
2019-01-15T01:14:34.313Z,2.17
2019-01-15T01:17:03.522Z,3.03
2019-01-15T01:19:32.352Z,2.07
2019-01-15T01:22:01.547Z,1.67
2019-01-15T01:24:30.423Z,2.20
2019-01-15T01:26:59.288Z,1.80
2019-01-15T01:29:28.346Z,2.10
2019-01-15T01:31:58.480Z,2.00
2019-01-15T01:34:27.466Z,2.10
2019-01-15T01:36:56.207Z,2.07
2019-01-15T01:39:25.026Z,1.80
2019-01-15T01:41:53.828Z,2.33
2019-01-15T01:44:22.599Z,1.73
2019-01-15T01:46:51.387Z,2.67
2019-01-15T01:49:20.233Z,2.17
2019-01-15T01:51:49.257Z,2.27
2019-01-15T01:54:19.414Z,2.27
2019-01-15T01:56:48.191Z,2.77
2019-01-15T01:59:17.032Z,1.70
2019-01-15T02:01:45.880Z,1.83
2019-01-15T02:04:14.791Z,1.87
2019-01-15T02:06:43.572Z,2.07
2019-01-15T02:09:12.399Z,2.43
2019-01-15T02:11:41.196Z,2.37
2019-01-15T02:14:10.001Z,2.43
2019-01-15T02:16:38.978Z,2.23
2019-01-15T02:19:07.945Z,2.67
2019-01-15T02:21:36.688Z,2.10
2019-01-15T02:24:06.064Z,1.73
2019-01-15T02:26:35.099Z,2.20
2019-01-15T02:29:04.078Z,2.20
2019-01-15T02:31:32.969Z,2.47
2019-01-15T02:34:01.799Z,2.57
2019-01-15T02:36:30.917Z,2.80
2019-01-15T02:38:59.748Z,1.80
2019-01-15T02:41:28.539Z,2.53
2019-01-15T02:43:57.262Z,1.77
2019-01-15T02:46:26.034Z,2.03
2019-01-15T02:48:54.696Z,1.63
2019-01-15T02:51:23.540Z,1.97
2019-01-15T02:53:52.391Z,2.17
2019-01-15T02:56:21.170Z,2.27
2019-01-15T02:58:49.986Z,2.87
2019-01-15T03:01:18.767Z,2.17
2019-01-15T03:03:47.518Z,2.23
2019-01-15T03:06:16.579Z,2.07
2019-01-15T03:08:45.372Z,3.83
2019-01-15T03:11:14.202Z,2.13
2019-01-15T03:13:42.985Z,2.53
2019-01-15T03:16:11.723Z,2.13
2019-01-15T03:18:40.522Z,2.03
2019-01-15T03:21:09.319Z,2.13
2019-01-15T03:23:38.247Z,2.63
2019-01-15T03:26:07.204Z,1.90
2019-01-15T03:28:36.353Z,2.40
2019-01-15T03:31:05.505Z,2.23
2019-01-15T03:33:34.629Z,2.07
2019-01-15T03:36:04.003Z,1.80
2019-01-15T03:38:33.024Z,1.93
2019-01-15T03:41:02.122Z,2.60
2019-01-15T03:43:31.682Z,2.40
2019-01-15T03:46:04.385Z,2.47
2019-01-15T03:48:31.244Z,2.43
2019-01-15T03:51:00.145Z,3.27
2019-01-15T03:53:29.011Z,1.63
2019-01-15T03:55:57.825Z,2.57
2019-01-15T03:58:26.712Z,1.83
2019-01-15T04:00:57.432Z,2.67
2019-01-15T04:03:26.275Z,2.20
2019-01-15T04:05:55.134Z,1.77
2019-01-15T04:08:23.981Z,3.77
2019-01-15T04:10:52.902Z,1.80
2019-01-15T04:13:22.098Z,1.50
2019-01-15T04:15:50.931Z,3.57
2019-01-15T04:18:19.796Z,2.00
2019-01-15T04:20:48.655Z,2.00
2019-01-15T04:23:17.610Z,1.53
2019-01-15T04:25:46.571Z,1.77
2019-01-15T04:28:15.422Z,2.30
2019-01-15T04:30:44.331Z,2.87
2019-01-15T04:33:13.289Z,3.47
2019-01-15T04:35:42.119Z,1.57
2019-01-15T04:38:11.874Z,1.97
2019-01-15T04:40:41.223Z,1.43
2019-01-15T04:43:10.287Z,2.47
2019-01-15T04:45:39.279Z,1.67
2019-01-15T04:48:08.185Z,1.43
2019-01-15T04:50:37.022Z,2.17
2019-01-15T04:53:06.087Z,2.08
2019-01-15T04:55:35.053Z,1.57
2019-01-15T04:58:04.095Z,1.80
2019-01-15T05:00:32.915Z,1.60
2019-01-15T05:03:04.160Z,2.30
2019-01-15T05:05:32.956Z,1.87
2019-01-15T05:08:01.816Z,1.53
2019-01-15T05:10:30.633Z,1.77
2019-01-15T05:12:59.376Z,1.97
2019-01-15T05:15:28.272Z,2.57
2019-01-15T05:17:57.021Z,1.87
2019-01-15T05:20:25.806Z,1.50
2019-01-15T05:22:54.755Z,1.57
2019-01-15T05:25:24.791Z,1.70
2019-01-15T05:27:53.952Z,1.37
2019-01-15T05:30:24.686Z,1.53
2019-01-15T05:32:53.612Z,2.07
2019-01-15T05:35:22.425Z,2.23
2019-01-15T05:37:51.210Z,1.87
2019-01-15T05:40:20.219Z,2.00
2019-01-15T05:42:49.059Z,1.67
2019-01-15T05:45:33.227Z,2.67
2019-01-15T05:48:06.692Z,1.37
2019-01-15T05:50:50.969Z,1.67
2019-01-15T05:53:19.838Z,1.67
2019-01-15T05:55:48.907Z,1.23
2019-01-15T05:58:17.953Z,1.67
2019-01-15T06:00:46.743Z,1.63
2019-01-15T06:03:15.557Z,2.43
2019-01-15T06:05:44.431Z,1.70
2019-01-15T06:08:13.292Z,1.43
2019-01-15T06:10:42.135Z,1.73
2019-01-15T06:13:10.958Z,1.10
2019-01-15T06:15:40.008Z,1.13
2019-01-15T06:18:08.846Z,1.53
2019-01-15T06:20:37.683Z,1.37
2019-01-15T06:23:36.426Z,1.40
2019-01-15T06:26:05.660Z,1.53
2019-01-15T06:28:34.764Z,1.98
2019-01-15T06:31:05.277Z,2.13
2019-01-15T06:33:34.084Z,2.30
2019-01-15T06:36:02.950Z,1.50
2019-01-15T06:38:31.794Z,0.97
2019-01-15T06:41:01.260Z,1.80
2019-01-15T06:43:30.346Z,1.80
2019-01-15T06:45:59.307Z,1.77
2019-01-15T06:48:28.326Z,1.50
2019-01-15T06:50:57.188Z,1.73
2019-01-15T06:53:25.932Z,1.70
2019-01-15T06:55:55.185Z,2.20
2019-01-15T06:58:24.314Z,2.30
2019-01-15T07:00:53.194Z,1.83
2019-01-15T07:03:22.193Z,1.63
2019-01-15T07:05:55.400Z,1.80
2019-01-15T07:08:25.664Z,1.97
2019-01-15T07:10:55.452Z,2.53
2019-01-15T07:13:27.069Z,1.87
2019-01-15T07:15:57.687Z,2.13
2019-01-15T07:18:26.980Z,2.50
2019-01-15T07:20:57.431Z,2.63
2019-01-15T07:23:26.861Z,2.35
2019-01-15T07:25:56.225Z,2.07
2019-01-15T07:28:25.758Z,2.50
2019-01-15T07:30:57.869Z,2.10
2019-01-15T07:33:29.164Z,2.00
2019-01-15T07:35:58.904Z,2.87
2019-01-15T07:38:28.561Z,2.47
2019-01-15T07:40:58.430Z,2.70
2019-01-15T07:43:28.473Z,2.37
2019-01-15T07:45:58.479Z,3.00
2019-01-15T07:48:28.218Z,3.40
2019-01-15T07:50:59.243Z,3.27
2019-01-15T07:53:30.132Z,4.00
2019-01-15T07:56:04.950Z,3.20
2019-01-15T07:58:40.558Z,2.83
2019-01-15T08:01:10.334Z,3.27
2019-01-15T08:03:39.685Z,3.10
2019-01-15T08:06:10.259Z,3.00
2019-01-15T08:08:41.969Z,3.00
2019-01-15T08:11:11.440Z,2.97
2019-01-15T08:13:40.926Z,3.83
2019-01-15T08:16:10.894Z,3.43
2019-01-15T08:18:40.851Z,4.00
2019-01-15T08:21:10.844Z,3.03
2019-01-15T08:23:47.453Z,3.27
2019-01-15T08:26:20.212Z,2.80
2019-01-15T08:28:49.883Z,3.23
2019-01-15T08:31:39.650Z,2.83
2019-01-15T08:34:09.354Z,3.30
2019-01-15T08:36:55.862Z,3.20
2019-01-15T08:39:25.236Z,3.27
2019-01-15T08:41:56.043Z,3.70
2019-01-15T08:44:28.132Z,3.20
2019-01-15T08:47:03.765Z,4.20
2019-01-15T08:49:33.701Z,4.00
2019-01-15T08:52:04.093Z,3.50
2019-01-15T08:54:33.425Z,3.20
2019-01-15T08:57:03.166Z,3.33
2019-01-15T08:59:32.375Z,3.17
2019-01-15T09:02:01.685Z,3.93
2019-01-15T09:04:30.812Z,3.17
2019-01-15T09:07:00.372Z,2.80
2019-01-15T09:09:30.687Z,3.93
2019-01-15T09:12:04.444Z,2.87
2019-01-15T09:14:33.479Z,3.13
2019-01-15T09:17:02.220Z,2.77
2019-01-15T09:19:31.032Z,3.03
2019-01-15T09:21:59.948Z,2.20
2019-01-15T09:24:28.969Z,3.90
2019-01-15T09:26:57.995Z,2.23
2019-01-15T09:29:26.784Z,3.13
2019-01-15T09:31:59.983Z,3.20
2019-01-15T09:34:34.803Z,3.90
2019-01-15T09:37:05.956Z,3.67
2019-01-15T09:39:35.127Z,3.20
2019-01-15T09:42:04.092Z,4.20
2019-01-15T09:44:34.218Z,4.40
2019-01-15T09:47:03.310Z,4.23
2019-01-15T09:49:32.226Z,3.23
2019-01-15T09:52:01.154Z,3.53
2019-01-15T09:54:29.947Z,2.93
2019-01-15T09:56:58.892Z,3.40
2019-01-15T09:59:27.649Z,2.30
2019-01-15T10:01:56.510Z,3.40
2019-01-15T10:04:25.313Z,2.63
2019-01-15T10:06:54.423Z,2.67
2019-01-15T10:09:34.828Z,3.00
2019-01-15T10:12:16.563Z,2.50
2019-01-15T10:14:58.787Z,2.23
2019-01-15T10:17:40.595Z,1.87
2019-01-15T10:20:26.137Z,1.80
2019-01-15T10:23:17.985Z,2.47
2019-01-15T10:26:02.444Z,1.80
2019-01-15T10:28:35.597Z,1.53
2019-01-15T10:31:42.244Z,2.00
2019-01-15T10:34:26.794Z,1.50
2019-01-15T10:36:57.593Z,1.90
2019-01-15T10:39:26.735Z,1.60
2019-01-15T10:41:56.035Z,3.03
2019-01-15T10:44:25.158Z,2.20
2019-01-15T10:47:07.096Z,2.00
2019-01-15T10:49:48.991Z,1.90
2019-01-15T10:52:35.063Z,1.87
2019-01-15T10:55:05.551Z,1.67
2019-01-15T10:57:46.159Z,1.53
2019-01-15T11:00:25.101Z,2.35
2019-01-15T11:02:57.095Z,2.33
2019-01-15T11:05:49.233Z,1.80
2019-01-15T11:08:30.367Z,1.70
2019-01-15T11:11:08.554Z,1.83
2019-01-15T11:13:38.162Z,1.97
2019-01-15T11:16:07.444Z,1.87
2019-01-15T11:18:37.567Z,1.70
2019-01-15T11:21:07.534Z,1.80
2019-01-15T11:23:36.684Z,1.87
2019-01-15T11:26:06.138Z,1.70
2019-01-15T11:28:35.971Z,1.77
2019-01-15T11:34:55.250Z,2.00
2019-01-15T11:48:00.741Z,2.07
2019-01-15T11:50:31.105Z,2.07
2019-01-15T11:59:58.163Z,1.67
2019-01-15T12:02:46.294Z,2.97
2019-01-15T12:05:34.885Z,2.43
2019-01-15T12:08:13.734Z,2.27
2019-01-15T12:11:09.265Z,2.10
2019-01-15T12:14:09.379Z,2.60
2019-01-15T12:17:00.281Z,2.77
2019-01-15T12:19:49.433Z,3.37
2019-01-15T12:43:50.554Z,2.27
2019-01-15T12:46:45.778Z,2.17
2019-01-15T12:49:32.314Z,2.23
2019-01-15T12:52:37.389Z,1.87
2019-01-15T12:55:24.765Z,1.83
2019-01-15T12:58:11.670Z,2.10
2019-01-15T13:00:58.736Z,2.20
2019-01-15T13:03:55.562Z,2.60
2019-01-15T13:06:49.816Z,2.10
2019-01-15T13:09:50.169Z,2.57
2019-01-15T13:12:38.227Z,2.87
2019-01-15T13:15:35.073Z,2.50
2019-01-15T13:18:34.963Z,3.27
2019-01-15T13:21:23.100Z,3.35
2019-01-15T13:24:09.980Z,3.23
2019-01-15T13:26:58.559Z,3.00
2019-01-15T13:30:21.879Z,3.67
2019-01-15T13:33:20.951Z,2.90
2019-01-15T13:36:22.023Z,3.27
2019-01-15T13:39:10.440Z,4.00
2019-01-15T13:42:08.084Z,4.03
2019-01-15T13:45:23.352Z,3.30
2019-01-15T13:48:13.897Z,3.40
2019-01-15T13:51:04.619Z,3.17
2019-01-15T13:54:00.234Z,3.37
2019-01-15T13:56:55.274Z,2.93
2019-01-15T13:59:35.024Z,3.43
2019-01-15T14:02:22.660Z,2.97
2019-01-15T14:05:10.736Z,3.30
2019-01-15T14:08:01.409Z,3.07
2019-01-15T14:11:08.265Z,3.60
2019-01-15T14:13:55.165Z,3.03
2019-01-15T14:16:48.920Z,3.93
2019-01-15T14:19:29.263Z,3.27
2019-01-15T14:22:24.978Z,3.02
2019-01-15T14:25:22.070Z,3.50
2019-01-15T14:28:13.224Z,3.57
2019-01-15T14:31:05.491Z,3.50
2019-01-15T14:33:55.506Z,3.30
2019-01-15T14:36:46.606Z,4.73
2019-01-15T14:39:33.473Z,3.87
2019-01-15T14:42:36.422Z,3.77
2019-01-15T14:45:23.597Z,3.73
2019-01-15T14:48:18.018Z,3.87
2019-01-15T14:51:11.966Z,4.13
2019-01-15T14:53:59.269Z,3.80
2019-01-15T14:57:00.525Z,2.90
2019-01-15T15:00:09.435Z,3.63
2019-01-15T15:03:07.637Z,3.60
2019-01-15T15:05:58.673Z,3.60
2019-01-15T15:08:55.321Z,3.67
2019-01-15T15:11:53.560Z,4.23
2019-01-15T15:14:37.483Z,3.90
2019-01-15T15:17:32.283Z,4.17
2019-01-15T15:20:29.625Z,3.67
2019-01-15T15:23:26.785Z,4.13
2019-01-15T15:26:28.126Z,4.33
2019-01-15T15:29:14.256Z,5.43
2019-01-15T15:32:05.554Z,4.40
2019-01-15T15:35:02.958Z,4.70
2019-01-15T15:38:11.530Z,4.17
2019-01-15T15:40:53.396Z,4.67
2019-01-15T15:43:44.564Z,4.40
2019-01-15T15:46:31.776Z,4.23
2019-01-15T15:49:32.828Z,4.40
2019-01-15T15:52:40.354Z,3.93
2019-01-15T15:55:39.722Z,4.80
2019-01-15T15:58:17.089Z,4.20
2019-01-15T16:01:20.228Z,3.60
2019-01-15T16:04:01.463Z,4.37
2019-01-15T16:07:07.700Z,4.70
2019-01-15T16:10:16.311Z,3.77
2019-01-15T16:13:13.233Z,4.07
2019-01-15T16:15:53.379Z,3.77
2019-01-15T16:18:41.301Z,3.77
2019-01-15T16:21:30.247Z,3.50
2019-01-15T16:24:16.782Z,3.40
2019-01-15T16:27:07.491Z,3.20
2019-01-15T16:29:55.441Z,2.83
2019-01-15T16:32:46.309Z,2.87
2019-01-15T16:35:37.262Z,3.67
2019-01-15T16:38:28.338Z,2.90
2019-01-15T16:41:15.457Z,3.03
2019-01-15T16:44:04.405Z,3.20
2019-01-15T16:46:53.327Z,2.80
2019-01-15T16:49:47.212Z,2.80
2019-01-15T16:52:49.072Z,2.87
2019-01-15T16:55:42.546Z,3.00
2019-01-15T16:58:33.306Z,3.03
2019-01-15T17:01:21.083Z,2.93
2019-01-15T17:04:09.017Z,2.80
2019-01-15T17:07:05.631Z,3.03
2019-01-15T17:09:59.731Z,2.53
2019-01-15T17:12:50.880Z,3.00
2019-01-15T17:15:42.392Z,2.70
2019-01-15T17:18:33.522Z,3.27
2019-01-15T17:21:34.137Z,3.20
2019-01-15T17:24:22.481Z,2.70
2019-01-15T17:26:59.383Z,2.80
2019-01-15T17:29:53.305Z,3.10
2019-01-15T17:32:35.279Z,2.73
2019-01-15T17:35:22.540Z,2.60
2019-01-15T17:38:09.191Z,2.50
2019-01-15T17:41:03.376Z,2.53
2019-01-15T17:43:49.165Z,2.40
2019-01-15T17:46:40.913Z,3.07
2019-01-15T17:49:18.333Z,2.40
2019-01-15T17:52:06.564Z,2.23
2019-01-15T17:55:03.987Z,2.57
2019-01-15T17:57:47.685Z,2.50
2019-01-15T18:00:38.666Z,2.30
2019-01-15T18:03:29.654Z,3.23
2019-01-15T18:06:17.774Z,2.30
2019-01-15T18:09:04.898Z,3.20
2019-01-15T18:11:56.151Z,2.50
2019-01-15T18:14:58.982Z,2.10
2019-01-15T18:17:50.089Z,2.60
2019-01-15T18:20:27.003Z,2.07
2019-01-15T18:23:31.958Z,2.60
2019-01-15T18:29:24.698Z,2.10
2019-01-15T18:32:15.935Z,1.80
2019-01-15T18:35:02.865Z,3.17
2019-01-15T18:37:49.598Z,1.97
2019-01-15T18:40:37.641Z,2.37
2019-01-15T18:43:34.665Z,2.73
2019-01-15T18:46:17.850Z,2.37
2019-01-15T18:49:04.702Z,1.67
2019-01-15T18:51:44.564Z,2.50
2019-01-15T18:54:44.899Z,1.87
2019-01-15T18:57:38.983Z,1.87
2019-01-15T19:00:48.374Z,2.23
2019-01-15T19:03:51.567Z,2.10
2019-01-15T19:06:39.575Z,2.10
2019-01-15T19:09:27.635Z,2.13
2019-01-15T19:12:24.854Z,2.17
2019-01-15T19:15:19.425Z,1.90
2019-01-15T19:18:07.803Z,1.83
2019-01-15T19:20:44.433Z,2.00
2019-01-15T19:23:38.666Z,1.47
2019-01-15T19:26:35.382Z,1.47
2019-01-15T19:29:26.398Z,1.80
2019-01-15T19:32:28.719Z,2.23
2019-01-15T19:35:15.298Z,2.10
2019-01-15T19:38:03.302Z,1.57
2019-01-15T19:41:17.985Z,1.83
2019-01-15T19:44:30.075Z,2.20
2019-01-15T19:47:28.977Z,2.17
2019-01-15T19:50:20.358Z,1.77
2019-01-15T19:53:14.121Z,1.73
2019-01-15T19:56:01.642Z,3.03
2019-01-15T19:58:48.409Z,2.20
2019-01-15T20:01:35.895Z,2.03
2019-01-15T20:04:15.283Z,2.17
2019-01-15T20:07:03.236Z,1.90
2019-01-15T20:09:51.029Z,2.10
2019-01-15T20:12:45.382Z,1.90
2019-01-15T20:15:36.073Z,2.40
2019-01-15T20:18:23.092Z,2.40
2019-01-15T20:21:09.952Z,2.10
2019-01-15T20:23:56.604Z,1.87
2019-01-15T20:26:43.472Z,1.70
2019-01-15T20:29:25.783Z,2.37
2019-01-15T20:32:12.636Z,2.27
2019-01-15T20:35:18.769Z,2.33
2019-01-15T20:38:06.715Z,2.10
2019-01-15T20:40:51.411Z,2.20
2019-01-15T20:43:38.036Z,2.30
2019-01-15T20:46:26.870Z,2.20
2019-01-15T20:49:12.472Z,2.47
2019-01-15T20:52:03.801Z,2.47
2019-01-15T20:54:53.262Z,2.40
2019-01-15T20:57:50.770Z,2.37
2019-01-15T21:00:37.995Z,2.67
2019-01-15T21:03:26.735Z,2.67
2019-01-15T21:06:19.688Z,2.27
2019-01-15T21:09:36.111Z,2.33
2019-01-15T21:12:27.026Z,2.50
2019-01-15T21:15:34.699Z,2.50
2019-01-15T21:18:45.918Z,2.97
2019-01-15T21:21:32.676Z,2.73
2019-01-15T21:24:17.025Z,2.17
2019-01-15T21:27:07.783Z,2.87
2019-01-15T21:29:56.742Z,2.33
2019-01-15T21:32:56.637Z,2.00
2019-01-15T21:35:44.492Z,2.10
2019-01-15T21:38:44.552Z,2.13
2019-01-15T21:41:28.697Z,1.83
2019-01-15T21:44:12.219Z,3.15
2019-01-15T21:47:00.194Z,2.33
2019-01-15T21:49:46.759Z,2.10
2019-01-15T21:52:34.708Z,2.47
2019-01-15T21:55:16.669Z,2.50
2019-01-15T21:57:54.231Z,2.17
2019-01-15T22:00:57.135Z,2.30
2019-01-15T22:03:43.596Z,2.50
2019-01-15T22:06:40.664Z,2.93
2019-01-15T22:09:32.212Z,2.70
2019-01-15T22:12:23.868Z,2.63
2019-01-15T22:15:10.496Z,2.87
2019-01-15T22:17:55.510Z,2.60
2019-01-15T22:20:45.385Z,2.67
2019-01-15T22:23:31.176Z,2.70
2019-01-15T22:26:18.005Z,2.73
2019-01-15T22:29:04.955Z,3.70
2019-01-15T22:31:58.943Z,3.20
2019-01-15T22:34:44.333Z,3.33
2019-01-15T22:37:27.301Z,3.50
2019-01-15T22:40:20.629Z,3.27
2019-01-15T22:43:17.699Z,3.50
2019-01-15T22:46:04.051Z,3.17
2019-01-15T22:48:51.290Z,3.47
2019-01-15T22:51:38.120Z,3.40
2019-01-15T22:54:24.583Z,3.00
2019-01-15T22:57:18.721Z,3.30
2019-01-15T23:00:24.908Z,3.40
2019-01-15T23:03:12.927Z,3.20
2019-01-15T23:06:06.709Z,3.10
2019-01-15T23:08:49.749Z,2.92
2019-01-15T23:11:36.061Z,3.00
2019-01-15T23:14:24.811Z,2.97
2019-01-15T23:17:18.802Z,2.43
2019-01-15T23:20:03.248Z,2.60
2019-01-15T23:22:49.646Z,3.00
2019-01-15T23:25:37.275Z,2.70
2019-01-15T23:28:26.420Z,2.83
2019-01-15T23:31:16.056Z,3.10
2019-01-15T23:34:06.989Z,2.20
2019-01-15T23:36:54.974Z,3.17
2019-01-15T23:39:42.893Z,2.90
2019-01-15T23:42:36.982Z,2.40
2019-01-15T23:45:27.321Z,3.33
2019-01-15T23:48:24.478Z,2.93
2019-01-15T23:51:11.376Z,2.73
2019-01-15T23:53:54.507Z,3.33
2019-01-15T23:56:51.571Z,2.63
2019-01-15T23:59:36.895Z,2.97
